Myrtle Point, Oregon
Current Conditions -  °F | °C
As of 4:55 PM on Wednesday 17 Dec 2014 (Local Time) from KOTH Reporting Station
Overcast Overcast  
Wind Chill: 48°   Ceiling: 3800
Heat Index: 48°   Visibility: 10mi
Dew Point: 48°   Wind: 3mph
Humidity: 100%   Direction: 140°SE
Pressure: 29.95"   Gusts: NA
Location:  43.06°N, 124.14°W
Report Text: KOTH 180055Z 14003KT 10SM BKN038 BKN044 OVC050 09/09 A2995 RMK AO1 P0005
Loading
Personal Weather Stations






























Interactive Weather Map New forecast layout! Learn more

10-Day Weather Forecast

Advertisements
Track Severe Weather on mobile